createdAt,value
2023-04-06T00:00:10.593Z,70.6898
2023-04-06T00:01:11.809Z,70.8990
2023-04-06T00:02:12.847Z,70.9006
2023-04-06T00:03:13.516Z,71.2266
2023-04-06T00:04:13.572Z,71.3523
2023-04-06T00:05:14.869Z,71.4247
2023-04-06T00:06:17.212Z,71.5993
2023-04-06T00:07:17.412Z,72.1631
2023-04-06T00:08:18.435Z,72.2662
2023-04-06T00:09:18.765Z,72.6416
2023-04-06T00:10:19.779Z,72.6727
2023-04-06T00:11:21.029Z,72.5697
2023-04-06T00:12:22.077Z,72.2822
2023-04-06T00:13:23.356Z,72.7769
2023-04-06T00:14:24.377Z,72.6460
2023-04-06T00:15:25.743Z,72.7737
2023-04-06T00:16:29.027Z,72.7584
2023-04-06T00:17:27.537Z,72.8053
2023-04-06T00:18:27.573Z,72.9324
2023-04-06T00:19:28.992Z,72.9806
2023-04-06T00:20:30.376Z,73.2464
2023-04-06T00:21:31.330Z,73.3177
2023-04-06T00:22:32.704Z,73.3902
2023-04-06T00:23:33.603Z,73.6187
2023-04-06T00:24:35.208Z,73.4391
2023-04-06T00:25:36.344Z,73.2850
2023-04-06T00:26:37.655Z,73.5450
2023-04-06T00:27:38.779Z,73.5886
2023-04-06T00:28:39.267Z,73.8114
2023-04-06T00:29:40.667Z,74.3637
2023-04-06T00:30:41.623Z,74.6244
2023-04-06T00:31:42.958Z,75.0142
2023-04-06T00:32:44.325Z,74.6741
2023-04-06T00:33:44.227Z,74.7222
2023-04-06T00:34:44.414Z,74.8961
2023-04-06T00:35:45.856Z,74.9537
2023-04-06T00:36:47.050Z,75.2064
2023-04-06T00:37:48.487Z,75.4123
2023-04-06T00:38:49.626Z,75.3261
2023-04-06T00:39:51.149Z,75.2839
2023-04-06T00:40:52.311Z,75.2495
2023-04-06T00:41:53.684Z,75.0759
2023-04-06T00:42:55.105Z,75.3868
2023-04-06T00:43:56.327Z,75.7603
2023-04-06T00:44:57.714Z,75.7517
2023-04-06T00:45:59.048Z,75.8183
2023-04-06T00:47:00.315Z,75.8685
2023-04-06T00:48:01.889Z,75.8749
2023-04-06T00:49:01.792Z,75.8662
2023-04-06T00:50:02.302Z,75.8848
2023-04-06T00:51:03.683Z,76.0511
2023-04-06T00:52:04.896Z,76.2115
2023-04-06T00:53:06.107Z,76.1003
2023-04-06T00:54:07.195Z,76.1413
2023-04-06T00:55:08.413Z,76.0887
2023-04-06T00:56:09.536Z,76.4619
2023-04-06T00:57:10.676Z,75.9480
2023-04-06T00:58:12.281Z,75.6755
2023-04-06T00:59:13.347Z,75.2186
2023-04-06T01:00:13.757Z,75.1876
2023-04-06T01:01:15.114Z,74.9784
2023-04-06T01:02:15.331Z,74.4846
2023-04-06T01:03:15.323Z,75.1935
2023-04-06T01:04:16.572Z,75.1814
2023-04-06T01:05:16.755Z,75.0926
2023-04-06T01:06:16.828Z,74.9186
2023-04-06T01:07:18.405Z,75.3597
2023-04-06T01:08:19.522Z,75.1648
2023-04-06T01:09:20.059Z,75.1469
2023-04-06T01:10:21.257Z,75.0270
2023-04-06T01:11:22.411Z,75.1228
2023-04-06T01:12:23.458Z,75.2894
2023-04-06T01:13:24.728Z,75.3381
2023-04-06T01:14:26.023Z,75.2759
2023-04-06T01:15:27.315Z,75.2670
2023-04-06T01:16:28.641Z,75.4223
2023-04-06T01:17:28.681Z,75.6547
2023-04-06T01:18:29.102Z,75.9070
2023-04-06T01:19:30.594Z,75.9828
2023-04-06T01:20:31.717Z,76.2803
2023-04-06T01:21:32.954Z,76.3726
2023-04-06T01:22:33.807Z,76.6342
2023-04-06T01:23:35.029Z,76.6615
2023-04-06T01:24:36.107Z,77.0129
2023-04-06T01:25:37.380Z,77.1953
2023-04-06T01:26:38.424Z,77.0814
2023-04-06T01:27:39.785Z,77.0705
2023-04-06T01:28:41.048Z,77.1857
2023-04-06T01:29:41.418Z,77.2182
2023-04-06T01:30:42.561Z,77.3089
2023-04-06T01:31:42.949Z,77.5178
2023-04-06T01:32:44.138Z,77.7223
2023-04-06T01:33:44.479Z,78.0784
2023-04-06T01:34:45.537Z,78.2187
2023-04-06T01:35:46.942Z,78.3410
2023-04-06T01:36:48.158Z,78.4945
2023-04-06T01:37:49.491Z,79.3097
2023-04-06T01:38:50.558Z,79.1311
2023-04-06T01:39:51.777Z,79.1146
2023-04-06T01:40:52.902Z,79.1631
2023-04-06T01:41:52.942Z,78.5863
2023-04-06T01:42:54.222Z,78.6791
2023-04-06T01:44:55.071Z,77.5319
2023-04-06T01:45:56.357Z,77.1262
2023-04-06T01:46:56.735Z,78.0992
2023-04-06T01:47:56.900Z,78.7958
2023-04-06T01:48:58.283Z,78.3527
2023-04-06T01:49:58.334Z,78.3250
2023-04-06T01:50:59.571Z,78.6891
2023-04-06T01:52:00.808Z,78.6863
2023-04-06T01:53:00.894Z,78.9529
2023-04-06T01:54:02.198Z,78.7945
2023-04-06T01:55:03.314Z,79.0296
2023-04-06T01:56:04.695Z,78.9708
2023-04-06T01:57:05.832Z,79.3549
2023-04-06T01:58:07.326Z,79.3121
2023-04-06T01:59:08.789Z,79.4632
2023-04-06T02:00:09.024Z,79.8088
2023-04-06T02:01:09.109Z,79.9854
2023-04-06T02:02:10.534Z,79.8587
2023-04-06T02:03:11.445Z,79.9358
2023-04-06T02:04:11.952Z,80.1580
2023-04-06T02:05:13.010Z,80.2574
2023-04-06T02:06:14.412Z,80.4831
2023-04-06T02:07:15.635Z,80.2390
2023-04-06T02:09:15.961Z,80.0012
2023-04-06T02:10:15.968Z,79.7975
2023-04-06T02:11:17.243Z,79.8680
2023-04-06T02:12:18.514Z,80.1556
2023-04-06T02:13:19.803Z,80.4443
2023-04-06T02:14:19.977Z,80.4059
2023-04-06T02:15:21.047Z,80.0584
2023-04-06T02:16:22.462Z,79.9607
2023-04-06T02:17:23.816Z,79.6870
2023-04-06T02:18:24.654Z,80.0654
2023-04-06T02:19:25.729Z,80.9858
2023-04-06T02:20:25.783Z,81.2321
2023-04-06T02:21:26.891Z,80.4577
2023-04-06T02:22:28.413Z,80.4218
2023-04-06T02:23:29.544Z,80.1627
2023-04-06T02:24:29.733Z,79.9519
2023-04-06T02:25:29.607Z,80.2077
2023-04-06T02:26:30.868Z,80.1710
2023-04-06T02:27:30.975Z,80.5549
2023-04-06T02:28:31.213Z,80.4678
2023-04-06T02:29:32.489Z,80.6463
2023-04-06T02:30:32.431Z,80.9923
2023-04-06T02:31:33.789Z,81.6191
2023-04-06T02:32:34.130Z,81.1264
2023-04-06T02:33:35.478Z,80.7318
2023-04-06T02:34:36.867Z,80.6137
2023-04-06T02:35:38.273Z,80.5087
2023-04-06T02:36:38.307Z,80.4282
2023-04-06T02:37:38.400Z,80.3404
2023-04-06T02:38:38.514Z,80.3609
2023-04-06T02:39:39.645Z,80.4878
2023-04-06T02:40:41.225Z,80.3046
2023-04-06T02:41:42.345Z,80.4009
2023-04-06T02:42:43.671Z,80.8645
2023-04-06T02:43:45.008Z,80.6062
2023-04-06T02:44:46.273Z,80.4905
2023-04-06T02:45:47.463Z,80.7422
2023-04-06T02:46:47.538Z,80.6949
2023-04-06T02:47:48.636Z,80.6877
2023-04-06T02:48:50.170Z,80.8439
2023-04-06T02:49:50.040Z,81.1852
2023-04-06T02:50:51.388Z,81.2089
2023-04-06T02:51:52.495Z,81.3258
2023-04-06T02:52:52.555Z,81.5587
2023-04-06T02:53:53.803Z,81.3511
2023-04-06T02:55:54.749Z,81.5985
2023-04-06T02:56:54.817Z,81.7222
2023-04-06T02:57:56.109Z,81.8448
2023-04-06T02:58:56.343Z,81.9693
2023-04-06T02:59:56.389Z,82.0149
2023-04-06T03:00:56.494Z,82.1887
2023-04-06T03:01:57.354Z,82.5204
2023-04-06T03:03:07.417Z,82.4814
2023-04-06T03:04:17.785Z,82.3122
2023-04-06T03:05:27.474Z,82.1694
2023-04-06T03:06:49.642Z,82.5305
2023-04-06T03:07:29.038Z,82.5584
2023-04-06T03:09:14.805Z,82.6768
2023-04-06T03:09:31.054Z,82.7222
2023-04-06T03:10:32.320Z,82.7338
2023-04-06T03:11:33.684Z,82.7024
2023-04-06T03:12:34.807Z,82.7892
2023-04-06T03:13:36.057Z,82.7417
2023-04-06T03:14:37.563Z,82.8488
2023-04-06T03:15:37.607Z,82.8713
2023-04-06T03:16:38.014Z,82.8361
2023-04-06T03:17:39.151Z,82.9715
2023-04-06T03:18:39.515Z,82.8228
2023-04-06T03:19:40.521Z,82.6657
2023-04-06T03:20:41.001Z,82.5779
2023-04-06T03:21:41.050Z,82.5953
2023-04-06T03:22:42.286Z,82.8435
2023-04-06T03:23:42.383Z,82.7448
2023-04-06T03:24:43.497Z,82.5049
2023-04-06T03:25:44.882Z,82.6932
2023-04-06T03:26:46.029Z,83.0547
2023-04-06T03:28:47.004Z,82.9537
2023-04-06T03:29:48.342Z,82.9558
2023-04-06T03:30:49.607Z,83.1030
2023-04-06T03:31:49.758Z,82.8013
2023-04-06T03:32:51.162Z,82.8828
2023-04-06T03:33:51.352Z,82.8860
2023-04-06T03:34:52.525Z,83.0408
2023-04-06T03:35:52.915Z,82.7682
2023-04-06T03:37:03.228Z,82.6799
2023-04-06T03:37:54.626Z,83.1518
2023-04-06T03:38:54.654Z,82.6942
2023-04-06T03:39:55.902Z,82.6502
2023-04-06T03:40:57.371Z,82.7130
2023-04-06T03:41:58.565Z,82.9316
2023-04-06T03:42:58.631Z,82.8125
2023-04-06T03:43:59.814Z,82.9432
2023-04-06T03:45:01.157Z,82.9908
2023-04-06T03:46:02.354Z,83.1354
2023-04-06T03:47:02.651Z,82.9507
2023-04-06T03:48:02.794Z,83.2115
2023-04-06T03:49:02.909Z,83.5621
2023-04-06T03:50:03.237Z,84.0699
2023-04-06T03:51:03.341Z,83.7324
2023-04-06T03:52:04.432Z,83.5168
2023-04-06T03:53:04.502Z,83.3912
2023-04-06T03:54:05.666Z,83.5161
2023-04-06T03:55:06.955Z,83.5511
2023-04-06T03:56:08.263Z,83.9314
2023-04-06T03:57:08.238Z,84.3517
2023-04-06T03:58:09.413Z,84.0047
2023-04-06T03:59:10.670Z,84.1368
2023-04-06T04:00:10.868Z,84.1763
2023-04-06T04:01:11.019Z,84.3503
2023-04-06T04:02:11.191Z,84.8317
2023-04-06T04:03:12.096Z,84.4397
2023-04-06T04:04:13.255Z,84.4408
2023-04-06T04:05:14.583Z,84.5201
2023-04-06T04:06:14.638Z,84.7181
2023-04-06T04:07:15.758Z,84.6079
2023-04-06T04:08:17.079Z,84.5948
2023-04-06T04:09:17.579Z,84.6717
2023-04-06T04:10:18.809Z,85.0631
2023-04-06T04:11:20.058Z,85.2105
2023-04-06T04:12:21.344Z,85.0418
2023-04-06T04:13:22.517Z,85.0315
2023-04-06T04:14:23.814Z,84.9890
2023-04-06T04:15:25.076Z,84.8373
2023-04-06T04:16:25.258Z,84.7343
2023-04-06T04:17:25.466Z,84.7995
2023-04-06T04:18:25.553Z,84.8277
2023-04-06T04:19:25.998Z,85.0420
2023-04-06T04:20:27.314Z,85.1625
2023-04-06T04:21:28.479Z,85.0259
2023-04-06T04:22:29.792Z,84.7459
2023-04-06T04:23:30.914Z,84.7452
2023-04-06T04:24:31.578Z,84.7310
2023-04-06T04:25:32.685Z,84.7907
2023-04-06T04:26:34.035Z,85.1089
2023-04-06T04:27:35.160Z,85.2330
2023-04-06T04:28:36.525Z,85.0034
2023-04-06T04:29:37.029Z,85.0644
2023-04-06T04:30:38.339Z,85.0159
2023-04-06T04:31:39.530Z,85.1418
2023-04-06T04:32:39.546Z,85.3742
2023-04-06T04:33:40.865Z,85.4820
2023-04-06T04:34:41.996Z,85.4019
2023-04-06T04:35:42.204Z,85.1701
2023-04-06T04:36:43.491Z,85.1410
2023-04-06T04:38:44.820Z,85.0276
2023-04-06T04:39:45.356Z,85.0709
2023-04-06T04:40:46.659Z,84.5853
2023-04-06T04:42:47.677Z,84.5355
2023-04-06T04:43:49.136Z,84.4921
2023-04-06T04:44:50.216Z,84.5532
2023-04-06T04:46:51.374Z,84.4674
2023-04-06T04:47:51.563Z,84.7436
2023-04-06T04:48:52.795Z,84.8870
2023-04-06T04:49:54.046Z,84.8016
2023-04-06T04:50:55.194Z,84.7936
2023-04-06T04:51:56.565Z,84.8204
2023-04-06T04:52:57.805Z,84.8637
2023-04-06T04:53:58.673Z,84.9711
2023-04-06T04:54:59.813Z,84.8140
2023-04-06T04:56:01.133Z,84.9552
2023-04-06T04:57:02.302Z,85.0906
2023-04-06T04:58:02.311Z,85.0059
2023-04-06T04:59:03.612Z,85.1785
2023-04-06T05:00:04.150Z,85.2915
2023-04-06T05:01:05.445Z,85.2912
2023-04-06T05:02:06.294Z,85.2465
2023-04-06T05:03:06.881Z,85.2587
2023-04-06T05:04:07.961Z,85.2955
2023-04-06T05:05:09.237Z,85.1717
2023-04-06T05:06:12.864Z,85.1500
2023-04-06T05:07:11.898Z,85.1413
2023-04-06T05:08:12.063Z,85.1658
2023-04-06T05:09:13.305Z,85.2747
2023-04-06T05:10:13.355Z,85.2801
2023-04-06T05:11:14.678Z,85.2854
2023-04-06T05:12:14.693Z,85.4586
2023-04-06T05:13:15.956Z,85.6662
2023-04-06T05:14:16.780Z,85.6730
2023-04-06T05:15:17.020Z,85.5683
2023-04-06T05:16:17.386Z,85.4083
2023-04-06T05:17:17.441Z,84.3710
2023-04-06T05:18:17.673Z,84.5043
2023-04-06T05:19:18.459Z,84.3678
2023-04-06T05:20:18.478Z,84.5773
2023-04-06T05:21:19.706Z,84.2826
2023-04-06T05:22:21.059Z,84.2850
2023-04-06T05:23:21.215Z,84.1931
2023-04-06T05:24:22.516Z,83.4054
2023-04-06T05:25:22.876Z,83.4485
2023-04-06T05:28:25.390Z,83.4209
2023-04-06T05:29:25.860Z,83.3969
2023-04-06T05:30:26.542Z,83.4286
2023-04-06T05:31:27.893Z,83.4649
2023-04-06T05:32:28.152Z,83.5826
2023-04-06T05:33:28.354Z,83.7271
2023-04-06T05:34:28.795Z,83.7454
2023-04-06T05:35:28.769Z,83.5928
2023-04-06T05:36:28.772Z,83.0732
2023-04-06T05:37:30.051Z,82.9019
2023-04-06T05:38:30.412Z,82.8312
2023-04-06T05:39:30.333Z,82.8390
2023-04-06T05:40:30.542Z,81.5950
2023-04-06T05:41:31.912Z,82.1288
2023-04-06T05:42:32.285Z,81.3614
2023-04-06T05:43:33.681Z,80.9195
2023-04-06T05:44:33.748Z,80.8656
2023-04-06T05:45:35.203Z,81.2308
2023-04-06T05:46:36.591Z,81.2769
2023-04-06T05:47:36.720Z,81.2730
2023-04-06T05:48:37.088Z,80.7269
2023-04-06T05:49:37.379Z,80.0775
2023-04-06T05:50:39.061Z,79.7379
2023-04-06T05:51:39.106Z,79.5734
2023-04-06T05:52:40.446Z,79.8031
2023-04-06T05:53:40.996Z,78.9335
2023-04-06T05:54:42.264Z,78.0562
2023-04-06T05:55:43.639Z,77.9427
2023-04-06T05:56:44.876Z,77.6758
2023-04-06T05:57:45.078Z,77.5355
2023-04-06T05:58:45.142Z,77.1618
2023-04-06T05:59:45.392Z,76.9965
2023-04-06T06:00:46.611Z,77.1148
2023-04-06T06:01:46.841Z,77.3259
2023-04-06T06:02:47.512Z,77.3441
2023-04-06T06:03:47.760Z,77.7319
2023-04-06T06:04:49.038Z,76.3938
2023-04-06T06:05:49.669Z,76.1207
2023-04-06T06:06:50.198Z,76.0687
2023-04-06T06:07:51.531Z,76.2615
2023-04-06T06:08:51.601Z,76.3341
2023-04-06T06:09:51.787Z,76.5607
2023-04-06T06:10:51.937Z,77.2685
2023-04-06T06:11:53.164Z,76.8652
2023-04-06T06:12:53.334Z,76.5653
2023-04-06T06:13:53.339Z,76.6220
2023-04-06T06:14:54.830Z,76.5181
2023-04-06T06:15:54.886Z,76.5567
2023-04-06T06:16:55.190Z,76.4473
2023-04-06T06:17:55.318Z,76.0555
2023-04-06T06:18:55.636Z,75.6216
2023-04-06T06:19:56.054Z,74.6042
2023-04-06T06:20:56.293Z,74.0918
2023-04-06T06:21:57.729Z,72.8370
2023-04-06T06:22:58.925Z,72.4896
2023-04-06T06:23:59.332Z,72.4190
2023-04-06T06:25:00.462Z,72.5637
2023-04-06T06:26:00.808Z,72.6925
2023-04-06T06:27:01.119Z,72.7614
2023-04-06T06:28:01.396Z,72.6514
2023-04-06T06:29:02.758Z,72.9243
2023-04-06T06:30:02.811Z,71.9812
2023-04-06T06:31:03.879Z,71.8093
2023-04-06T06:32:04.241Z,72.1943
2023-04-06T06:33:04.439Z,72.4559
2023-04-06T06:34:04.508Z,72.6867
2023-04-06T06:35:05.865Z,72.5874
2023-04-06T06:36:06.121Z,72.5051
2023-04-06T06:37:06.328Z,72.2273
2023-04-06T06:38:06.444Z,73.1325
2023-04-06T06:39:07.106Z,70.9137
2023-04-06T06:40:07.110Z,70.8313
2023-04-06T06:41:07.229Z,69.9361
2023-04-06T06:42:07.319Z,70.3508
2023-04-06T06:43:07.723Z,70.0486
2023-04-06T06:44:09.352Z,70.0824
2023-04-06T06:45:09.569Z,70.6548
2023-04-06T06:46:09.880Z,69.8726
2023-04-06T06:47:09.928Z,70.3067
2023-04-06T06:48:10.276Z,71.4236
2023-04-06T06:49:10.790Z,72.6365
2023-04-06T06:50:12.135Z,71.2069
2023-04-06T06:51:12.180Z,69.6782
2023-04-06T06:52:13.449Z,69.5794
2023-04-06T06:53:13.760Z,69.4670
2023-04-06T06:54:15.022Z,69.3381
2023-04-06T06:55:15.200Z,69.9656
2023-04-06T06:56:16.506Z,70.0197
2023-04-06T06:57:16.803Z,68.4610
2023-04-06T06:58:18.054Z,67.9157
2023-04-06T06:59:18.434Z,68.7261
2023-04-06T07:00:19.339Z,70.0493
2023-04-06T07:01:19.590Z,70.4846
2023-04-06T07:02:19.928Z,69.4574
2023-04-06T07:03:20.379Z,69.0798
2023-04-06T07:04:21.455Z,67.9414
2023-04-06T07:05:29.185Z,67.8176
2023-04-06T07:06:29.373Z,67.1934
2023-04-06T07:07:30.742Z,67.2395
2023-04-06T07:08:30.975Z,66.6628
2023-04-06T07:09:32.164Z,68.0430
2023-04-06T07:10:33.677Z,67.1754
2023-04-06T07:11:34.068Z,66.5458
2023-04-06T07:12:36.530Z,66.3555
2023-04-06T07:13:37.782Z,66.4595
2023-04-06T07:14:37.862Z,66.8781
2023-04-06T07:15:39.093Z,67.5905
2023-04-06T07:16:40.230Z,66.1007
2023-04-06T07:17:40.435Z,66.2640
2023-04-06T07:18:40.620Z,65.5572
2023-04-06T07:19:41.974Z,66.3591
2023-04-06T07:20:43.428Z,66.2880
2023-04-06T07:21:44.753Z,66.2879
2023-04-06T07:22:46.324Z,64.9024
2023-04-06T07:23:46.409Z,63.3144
2023-04-06T07:24:47.009Z,64.4967
2023-04-06T07:25:47.013Z,63.5030
2023-04-06T07:26:47.284Z,63.6503
2023-04-06T07:27:47.255Z,63.7014
2023-04-06T07:28:47.207Z,62.8994
2023-04-06T07:29:47.592Z,60.8743
2023-04-06T07:30:47.601Z,60.8436
2023-04-06T07:31:48.312Z,60.3720
2023-04-06T07:32:48.994Z,59.0559
2023-04-06T07:33:49.026Z,59.4199
2023-04-06T07:34:49.112Z,60.0671
2023-04-06T07:35:49.740Z,59.7054
2023-04-06T07:36:50.607Z,59.3419
2023-04-06T07:37:51.967Z,58.4758
2023-04-06T07:38:52.535Z,58.2326
2023-04-06T07:39:53.722Z,58.7017
2023-04-06T07:40:53.969Z,58.3592
2023-04-06T07:41:54.218Z,58.3661
2023-04-06T07:42:56.176Z,58.2931
2023-04-06T07:43:55.363Z,57.5957
2023-04-06T07:44:55.889Z,57.8402
2023-04-06T07:45:55.941Z,59.4269
2023-04-06T07:46:56.390Z,58.7588
2023-04-06T07:47:56.791Z,59.2134
2023-04-06T07:48:57.113Z,60.5951
2023-04-06T07:49:57.147Z,60.5544
2023-04-06T07:50:57.170Z,59.2304
2023-04-06T07:51:57.444Z,58.7665
2023-04-06T07:52:57.420Z,58.3658
2023-04-06T07:53:58.862Z,59.4105
2023-04-06T07:54:59.413Z,58.4401
2023-04-06T07:56:00.731Z,58.5369
2023-04-06T07:57:00.785Z,62.1698
2023-04-06T07:58:00.877Z,58.7505
2023-04-06T07:59:02.075Z,58.4014
2023-04-06T08:00:02.287Z,60.1397
2023-04-06T08:01:02.501Z,59.7568
2023-04-06T08:02:02.594Z,59.5674
2023-04-06T08:03:03.676Z,59.7765
2023-04-06T08:04:03.913Z,58.5273
2023-04-06T08:05:04.041Z,58.1911
2023-04-06T08:06:04.292Z,61.0625
2023-04-06T08:07:04.626Z,60.6781
2023-04-06T08:08:04.628Z,59.0005
2023-04-06T08:09:04.987Z,57.7760
2023-04-06T08:10:06.401Z,58.1088
2023-04-06T08:11:06.576Z,58.4454
2023-04-06T08:12:06.876Z,58.3848
2023-04-06T08:13:06.956Z,58.0680
2023-04-06T08:14:07.387Z,58.0222
2023-04-06T08:15:08.103Z,57.4096
2023-04-06T08:16:08.733Z,57.3224
2023-04-06T08:17:09.500Z,57.1349
2023-04-06T08:18:09.727Z,57.6667
2023-04-06T08:19:11.364Z,56.8246
2023-04-06T08:20:11.700Z,55.8272
2023-04-06T08:21:11.691Z,57.7707
2023-04-06T08:22:11.952Z,57.0873
2023-04-06T08:23:12.588Z,55.5973
2023-04-06T08:24:13.497Z,54.6446
2023-04-06T08:25:13.501Z,55.5524
2023-04-06T08:26:13.697Z,55.8000
2023-04-06T08:27:13.748Z,57.0353
2023-04-06T08:28:15.177Z,55.9565
2023-04-06T08:29:15.636Z,55.5912
2023-04-06T08:30:17.026Z,55.5457
2023-04-06T08:31:17.594Z,55.3848
2023-04-06T08:32:17.776Z,55.3115
2023-04-06T08:33:18.171Z,55.3247
2023-04-06T08:34:19.383Z,55.3593
2023-04-06T08:35:19.574Z,55.6315
2023-04-06T08:36:19.947Z,55.4047
2023-04-06T08:37:21.270Z,54.9335
2023-04-06T08:38:21.468Z,55.7117
2023-04-06T08:39:21.447Z,56.1386
2023-04-06T08:40:21.677Z,55.0410
2023-04-06T08:41:22.319Z,53.0226
2023-04-06T08:42:23.680Z,53.2509
2023-04-06T08:43:23.750Z,54.1259
2023-04-06T08:44:25.085Z,54.1541
2023-04-06T08:45:25.475Z,54.0190
2023-04-06T08:46:25.894Z,53.1823
2023-04-06T08:47:26.255Z,53.3591
2023-04-06T08:48:26.909Z,52.9819
2023-04-06T08:49:27.150Z,54.3493
2023-04-06T08:50:28.565Z,54.5548
2023-04-06T08:51:30.165Z,53.7909
2023-04-06T08:52:31.533Z,54.6665
2023-04-06T08:53:32.005Z,55.5395
2023-04-06T08:54:32.154Z,53.7023
2023-04-06T08:55:33.693Z,53.2993
2023-04-06T08:56:35.038Z,54.8726
2023-04-06T08:57:36.723Z,53.4840
2023-04-06T08:58:38.546Z,53.7668
2023-04-06T08:59:37.661Z,52.7681
2023-04-06T09:00:38.227Z,52.8934
2023-04-06T09:01:39.264Z,52.0733
2023-04-06T09:02:40.069Z,52.9458
2023-04-06T09:03:41.143Z,53.4659
2023-04-06T09:04:42.318Z,53.7392
2023-04-06T09:05:42.521Z,53.2693
2023-04-06T09:06:42.735Z,53.1104
2023-04-06T09:07:42.825Z,52.1928
2023-04-06T09:08:42.982Z,52.1640
2023-04-06T09:09:43.080Z,51.6367
2023-04-06T09:10:43.415Z,51.1391
2023-04-06T09:11:44.763Z,51.3573
2023-04-06T09:12:45.124Z,52.4299
2023-04-06T09:13:45.334Z,52.5519
2023-04-06T09:14:45.466Z,51.3349
2023-04-06T09:15:45.718Z,48.4701
2023-04-06T09:16:46.509Z,47.4414
2023-04-06T09:17:46.924Z,47.2864
2023-04-06T09:18:47.255Z,47.4257
2023-04-06T09:19:47.351Z,46.3657
2023-04-06T09:20:47.701Z,46.8426
2023-04-06T09:21:47.869Z,45.3957
2023-04-06T09:22:48.284Z,46.1897
2023-04-06T09:23:48.506Z,46.2882
2023-04-06T09:24:49.292Z,46.6273
2023-04-06T09:25:49.662Z,46.3738
2023-04-06T09:26:50.057Z,46.9852
2023-04-06T09:27:50.158Z,45.0517
2023-04-06T09:28:50.402Z,45.5851
2023-04-06T09:29:50.506Z,45.1365
2023-04-06T09:30:50.974Z,45.0568
2023-04-06T09:31:51.334Z,44.0839
2023-04-06T09:32:52.469Z,43.3492
2023-04-06T09:33:52.954Z,43.2680
2023-04-06T09:34:53.870Z,44.4860
2023-04-06T09:35:54.123Z,44.4849
2023-04-06T09:36:54.667Z,45.2396
2023-04-06T09:37:54.688Z,45.3105
2023-04-06T09:38:54.953Z,43.5043
2023-04-06T09:39:55.008Z,44.9023
2023-04-06T09:41:01.818Z,44.5076
2023-04-06T09:42:01.936Z,43.1969
2023-04-06T09:43:02.193Z,42.7136
2023-04-06T09:44:02.334Z,44.5730
2023-04-06T09:45:02.638Z,44.5542
2023-04-06T09:46:02.750Z,43.8138
2023-04-06T09:47:03.891Z,43.0938
2023-04-06T09:48:04.019Z,40.7481
2023-04-06T09:49:04.544Z,43.3738
2023-04-06T09:50:05.213Z,43.5235
2023-04-06T09:51:05.497Z,44.1963
2023-04-06T09:52:07.008Z,42.4809
2023-04-06T09:53:07.237Z,43.0611
2023-04-06T09:54:07.742Z,42.8720
2023-04-06T09:55:08.310Z,43.6046
2023-04-06T09:56:08.581Z,43.9703
2023-04-06T09:57:08.997Z,42.6908
2023-04-06T09:58:09.367Z,42.2711
2023-04-06T09:59:10.461Z,42.7955
2023-04-06T10:00:11.501Z,42.9344
2023-04-06T10:01:12.013Z,42.6579
2023-04-06T10:02:12.509Z,42.7118
2023-04-06T10:03:13.401Z,43.3813
2023-04-06T10:04:14.881Z,42.6234
2023-04-06T10:05:15.661Z,42.7883
2023-04-06T10:06:15.817Z,42.3737
2023-04-06T10:07:16.151Z,42.7392
2023-04-06T10:08:17.099Z,42.0995
2023-04-06T10:09:17.304Z,42.7253
2023-04-06T10:10:17.597Z,43.6087
2023-04-06T10:11:18.080Z,41.6301
2023-04-06T10:12:18.236Z,40.0533
2023-04-06T10:13:18.361Z,39.0991
2023-04-06T10:14:18.632Z,40.1661
2023-04-06T10:15:20.304Z,42.3733
2023-04-06T10:16:19.486Z,41.8979
2023-04-06T10:17:19.850Z,42.3854
2023-04-06T10:18:20.493Z,42.9738
2023-04-06T10:19:20.700Z,42.8856
2023-04-06T10:20:20.873Z,42.3343
2023-04-06T10:21:21.926Z,43.3333
2023-04-06T10:22:22.199Z,44.4141
2023-04-06T10:23:22.567Z,44.4155
2023-04-06T10:24:22.724Z,43.5518
2023-04-06T10:25:22.808Z,43.8896
2023-04-06T10:26:22.942Z,42.6723
2023-04-06T10:27:24.762Z,42.3242
2023-04-06T10:28:23.950Z,40.9356
2023-04-06T10:29:24.143Z,39.8797
2023-04-06T10:30:24.217Z,40.3443
2023-04-06T10:31:24.740Z,39.6462
2023-04-06T10:32:25.132Z,39.7154
2023-04-06T10:33:25.475Z,40.8772
2023-04-06T10:34:25.653Z,40.4828
2023-04-06T10:35:25.676Z,41.5953
2023-04-06T10:36:26.164Z,40.4451
2023-04-06T10:37:26.452Z,40.1031
2023-04-06T10:38:26.506Z,39.8652
2023-04-06T10:39:26.845Z,39.5132
2023-04-06T10:40:27.041Z,38.6281
2023-04-06T10:41:27.289Z,38.7825
2023-04-06T10:42:27.376Z,39.2161
2023-04-06T10:46:14.319Z,41.0834
2023-04-06T10:47:14.583Z,40.2413
2023-04-06T10:48:14.873Z,40.2464
2023-04-06T10:49:14.884Z,40.2101
2023-04-06T10:50:14.976Z,40.8407
2023-04-06T10:51:15.034Z,39.5706
2023-04-06T10:52:15.078Z,39.4993
2023-04-06T10:53:15.232Z,39.5934
2023-04-06T10:54:16.368Z,38.4493
2023-04-06T10:55:16.529Z,39.3284
2023-04-06T10:56:16.810Z,40.5001
2023-04-06T10:57:18.076Z,38.9023
2023-04-06T10:58:18.185Z,38.3978
2023-04-06T10:59:18.388Z,39.3624
2023-04-06T11:00:18.728Z,38.3447
2023-04-06T11:01:19.133Z,36.7557
2023-04-06T11:02:19.389Z,37.5739
2023-04-06T11:03:19.725Z,38.1223
2023-04-06T11:04:20.162Z,37.1201
2023-04-06T11:05:20.112Z,37.1791
2023-04-06T11:06:20.245Z,37.1708
2023-04-06T11:07:20.390Z,38.8228
2023-04-06T11:08:21.534Z,38.1284
2023-04-06T11:09:21.657Z,37.8283
2023-04-06T11:10:21.616Z,37.7447
2023-04-06T11:11:21.904Z,38.2650
2023-04-06T11:12:21.998Z,38.7749
2023-04-06T11:13:22.058Z,38.0569
2023-04-06T11:14:22.164Z,38.1672
2023-04-06T11:15:22.757Z,38.3199
2023-04-06T11:16:22.842Z,38.3578
2023-04-06T11:17:23.849Z,38.2562
2023-04-06T11:18:24.368Z,38.0993
2023-04-06T11:19:24.971Z,38.1737
2023-04-06T11:20:25.058Z,38.7207
2023-04-06T11:21:26.270Z,38.6952
2023-04-06T11:22:26.754Z,37.8629
2023-04-06T11:23:26.842Z,37.7251
2023-04-06T11:24:26.914Z,36.8796
2023-04-06T11:25:27.039Z,37.1860
2023-04-06T11:26:27.778Z,37.4374
2023-04-06T11:27:27.818Z,37.2821
2023-04-06T11:28:29.095Z,36.8927
2023-04-06T11:29:29.434Z,35.9240
2023-04-06T11:30:30.626Z,36.8484
2023-04-06T11:31:31.192Z,37.2547
2023-04-06T11:32:31.334Z,37.4118
2023-04-06T11:33:31.561Z,37.3045
2023-04-06T11:34:31.750Z,37.0466
2023-04-06T11:35:31.829Z,35.5833
2023-04-06T11:36:33.127Z,35.6412
2023-04-06T11:37:33.225Z,36.2675
2023-04-06T11:38:34.573Z,36.3138
2023-04-06T11:39:35.823Z,37.1374
2023-04-06T11:40:37.108Z,37.5977
2023-04-06T11:41:37.278Z,36.9849
2023-04-06T11:42:37.580Z,36.3843
2023-04-06T11:43:37.665Z,36.1399
2023-04-06T11:44:37.778Z,34.8585
2023-04-06T11:45:37.915Z,35.9952
2023-04-06T11:46:38.210Z,36.4767
2023-04-06T11:47:38.361Z,35.1323
2023-04-06T11:48:39.154Z,34.3675
2023-04-06T11:49:39.627Z,34.1877
2023-04-06T11:50:41.126Z,34.7359
2023-04-06T11:51:42.374Z,35.8300
2023-04-06T11:52:42.572Z,36.3158
2023-04-06T11:53:43.740Z,35.0081
2023-04-06T11:54:44.001Z,34.6869
2023-04-06T11:55:44.310Z,33.6651
2023-04-06T11:56:44.542Z,33.4999
2023-04-06T11:57:44.536Z,32.3498
2023-04-06T11:58:45.501Z,32.0496
2023-04-06T11:59:46.659Z,32.0640
2023-04-06T12:00:47.613Z,33.0640
2023-04-06T12:01:47.591Z,32.2208
2023-04-06T12:02:47.794Z,31.9816
2023-04-06T12:03:49.101Z,31.4046
2023-04-06T12:04:49.441Z,30.8541
2023-04-06T12:05:49.414Z,31.4871
2023-04-06T12:06:49.638Z,31.8808
2023-04-06T12:07:49.923Z,30.2363
2023-04-06T12:08:50.298Z,30.3361
2023-04-06T12:09:50.581Z,30.8127
2023-04-06T12:10:50.658Z,30.5008
2023-04-06T12:11:50.922Z,31.2181
2023-04-06T12:12:51.086Z,30.3831
2023-04-06T12:13:52.371Z,30.8597
2023-04-06T12:14:52.553Z,31.1032
2023-04-06T12:15:52.779Z,30.9105
2023-04-06T12:16:53.374Z,30.7834
2023-04-06T12:17:53.947Z,30.6322
2023-04-06T12:18:54.128Z,29.7492
2023-04-06T12:19:54.201Z,30.4120
2023-04-06T12:20:55.207Z,29.3499
2023-04-06T12:21:55.318Z,29.8005
2023-04-06T12:22:55.476Z,30.7232
2023-04-06T12:23:55.734Z,30.6212
2023-04-06T12:24:55.711Z,30.9825
2023-04-06T12:25:56.370Z,30.6038